createdAt,value
2017-11-23T05:41:12.657Z,74.50
2017-11-23T05:43:45.304Z,74.40
2017-11-23T05:46:17.212Z,74.40
2017-11-23T05:48:49.092Z,74.30
2017-11-23T05:51:20.990Z,74.50
2017-11-23T05:53:52.870Z,74.80
2017-11-23T05:56:25.545Z,75.50
2017-11-23T05:58:58.188Z,74.80
2017-11-23T06:01:30.089Z,74.80
2017-11-23T06:04:02.734Z,74.40
2017-11-23T06:06:34.653Z,74.30
2017-11-23T06:09:06.525Z,74.50
2017-11-23T06:11:38.418Z,74.80
2017-11-23T06:14:10.297Z,74.30
2017-11-23T06:16:42.213Z,75.00
2017-11-23T06:19:14.093Z,76.30
2017-11-23T06:21:46.003Z,74.70
2017-11-23T06:24:18.650Z,74.60
2017-11-23T06:26:50.558Z,74.50
2017-11-23T06:29:22.430Z,75.10
2017-11-23T06:31:54.336Z,75.00
2017-11-23T06:34:26.220Z,75.80
2017-11-23T06:36:58.150Z,74.60
2017-11-23T06:39:30.029Z,74.30
2017-11-23T06:42:01.952Z,74.60
2017-11-23T06:44:33.837Z,74.30
2017-11-23T06:47:05.730Z,74.80
2017-11-23T06:49:37.621Z,75.30
2017-11-23T06:52:09.523Z,75.20
2017-11-23T06:54:41.404Z,75.80
2017-11-23T06:57:14.077Z,75.90
2017-11-23T06:59:46.721Z,75.50
2017-11-23T07:02:18.622Z,75.40
2017-11-23T07:04:50.527Z,75.40
2017-11-23T07:07:23.195Z,75.40
2017-11-23T07:09:55.072Z,75.40
2017-11-23T07:12:27.036Z,75.20
2017-11-23T07:14:58.929Z,75.10
2017-11-23T07:17:31.609Z,75.00
2017-11-23T07:20:04.250Z,74.80
2017-11-23T07:22:36.922Z,75.10
2017-11-23T07:25:08.817Z,75.10
2017-11-23T07:27:40.723Z,75.50
2017-11-23T07:30:12.617Z,75.00
2017-11-23T07:32:44.529Z,75.10
2017-11-23T07:35:16.463Z,75.00
2017-11-23T07:37:48.368Z,74.80
2017-11-23T07:40:20.247Z,75.10
2017-11-23T07:42:52.148Z,75.10
2017-11-23T07:45:24.810Z,74.80
2017-11-23T07:47:56.701Z,74.80
2017-11-23T07:50:29.340Z,74.80
2017-11-23T07:53:01.250Z,74.80
2017-11-23T07:55:33.135Z,74.70
2017-11-23T07:58:05.045Z,75.30
2017-11-23T08:00:36.925Z,75.10
2017-11-23T08:03:08.829Z,74.40
2017-11-23T08:05:40.748Z,74.40
2017-11-23T08:08:13.412Z,74.00
2017-11-23T08:10:46.055Z,73.90
2017-11-23T08:13:17.953Z,74.00
2017-11-23T08:15:50.588Z,74.40
2017-11-23T08:18:22.516Z,74.40
2017-11-23T08:20:54.404Z,74.50
2017-11-23T08:23:26.297Z,74.80
2017-11-23T08:25:58.169Z,74.60
2017-11-23T08:28:30.850Z,74.60
2017-11-23T08:31:03.526Z,74.70
2017-11-23T08:33:36.181Z,75.00
2017-11-23T08:36:08.079Z,74.80
2017-11-23T08:38:39.980Z,74.60
2017-11-23T08:41:11.881Z,74.40
2017-11-23T08:43:44.553Z,74.60
2017-11-23T08:46:16.432Z,74.60
2017-11-23T08:48:48.348Z,73.70
2017-11-23T08:51:20.221Z,73.60
2017-11-23T08:53:52.128Z,72.90
2017-11-23T08:56:24.009Z,72.10
2017-11-23T08:58:55.904Z,71.80
2017-11-23T09:01:27.782Z,71.70
2017-11-23T09:04:00.449Z,71.10
2017-11-23T09:06:32.311Z,71.10
2017-11-23T09:09:04.230Z,71.10
2017-11-23T09:11:36.108Z,70.90
2017-11-23T09:14:08.056Z,70.30
2017-11-23T09:16:39.927Z,70.00
2017-11-23T09:19:11.843Z,69.90
2017-11-23T09:21:43.731Z,69.50
2017-11-23T09:24:15.620Z,69.30
2017-11-23T09:26:47.498Z,69.80
2017-11-23T09:29:19.414Z,68.60
2017-11-23T09:31:51.284Z,68.90
2017-11-23T09:34:23.173Z,68.60
2017-11-23T09:36:55.843Z,68.20
2017-11-23T09:39:27.748Z,68.00
2017-11-23T09:41:59.644Z,68.20
2017-11-23T09:44:31.557Z,67.90
2017-11-23T09:47:04.200Z,67.90
2017-11-23T09:49:36.221Z,67.90
2017-11-23T09:52:08.127Z,68.00
2017-11-23T09:54:40.033Z,67.60
2017-11-23T09:57:11.919Z,67.90
2017-11-23T09:59:43.825Z,67.80
2017-11-23T10:02:16.471Z,67.30
2017-11-23T10:04:48.372Z,67.80
2017-11-23T10:07:21.025Z,67.70
2017-11-23T10:09:52.938Z,67.70
2017-11-23T10:12:24.824Z,67.40
2017-11-23T10:14:56.733Z,67.40
2017-11-23T10:17:29.388Z,67.50
2017-11-23T10:20:01.300Z,67.50
2017-11-23T10:22:33.177Z,67.20
2017-11-23T10:25:05.062Z,67.50
2017-11-23T10:27:36.930Z,67.30
2017-11-23T10:30:08.821Z,67.90
2017-11-23T10:32:41.473Z,68.40
2017-11-23T10:35:13.390Z,68.50
2017-11-23T10:37:45.263Z,68.80
2017-11-23T10:40:17.171Z,68.30
2017-11-23T10:42:49.817Z,68.80
2017-11-23T10:45:21.718Z,68.80
2017-11-23T10:47:55.085Z,69.10
2017-11-23T10:50:26.998Z,69.10
2017-11-23T10:52:58.877Z,69.80
2017-11-23T10:55:30.776Z,69.60
2017-11-23T10:58:02.660Z,69.70
2017-11-23T11:00:35.328Z,71.70
2017-11-23T11:03:07.977Z,74.50
2017-11-23T11:05:39.873Z,74.50
2017-11-23T11:08:12.508Z,76.60
2017-11-23T11:10:44.416Z,76.60
2017-11-23T11:13:17.070Z,77.50
2017-11-23T11:15:48.977Z,77.50
2017-11-23T11:18:21.126Z,77.00
2017-11-23T11:20:53.034Z,76.70
2017-11-23T11:23:24.921Z,75.90
2017-11-23T11:25:57.060Z,75.30
2017-11-23T11:28:28.937Z,75.30
2017-11-23T11:31:00.850Z,75.20
2017-11-23T11:33:32.729Z,74.50
2017-11-23T11:36:04.646Z,74.10
2017-11-23T11:38:36.560Z,74.20
2017-11-23T11:41:08.460Z,74.00
2017-11-23T11:43:41.104Z,73.40
2017-11-23T11:46:13.005Z,73.30
2017-11-23T11:48:45.642Z,72.70
2017-11-23T11:51:17.548Z,72.70
2017-11-23T11:53:50.180Z,71.70
2017-11-23T11:56:22.090Z,71.50
2017-11-23T11:58:53.962Z,71.80
2017-11-23T12:01:25.882Z,72.00
2017-11-23T12:03:57.757Z,71.60
2017-11-23T12:06:30.428Z,72.00
2017-11-23T12:09:03.060Z,72.60
2017-11-23T12:11:34.963Z,72.50
2017-11-23T12:14:18.805Z,73.00
2017-11-23T12:20:15.321Z,73.60
2017-11-23T12:23:02.912Z,73.60
2017-11-23T12:25:47.516Z,73.50
2017-11-23T12:28:31.388Z,73.40
2017-11-23T12:31:04.024Z,74.60
2017-11-23T12:33:35.909Z,74.40
2017-11-23T12:36:07.798Z,74.30
2017-11-23T12:38:40.461Z,74.10
2017-11-23T12:41:12.347Z,74.10
2017-11-23T12:43:44.281Z,74.20
2017-11-23T12:46:17.032Z,73.60
2017-11-23T12:48:48.969Z,73.50
2017-11-23T12:51:20.848Z,73.40
2017-11-23T12:53:52.753Z,73.40
2017-11-23T12:56:25.419Z,72.90
2017-11-23T12:58:57.314Z,72.90
2017-11-23T13:01:29.184Z,73.00
2017-11-23T13:04:01.090Z,72.80
2017-11-23T13:06:32.961Z,72.80
2017-11-23T13:09:04.878Z,72.90
2017-11-23T13:11:36.756Z,72.70
2017-11-23T13:14:08.673Z,72.60
2017-11-23T13:16:40.553Z,72.90
2017-11-23T13:19:12.449Z,73.00
2017-11-23T13:21:44.325Z,73.10
2017-11-23T13:24:16.280Z,73.30
2017-11-23T13:26:48.153Z,73.10
2017-11-23T13:29:20.037Z,73.30
2017-11-23T13:31:51.921Z,73.50
2017-11-23T13:34:23.813Z,73.60
2017-11-23T13:36:55.696Z,73.50
2017-11-23T13:39:28.376Z,73.30
2017-11-23T13:42:01.025Z,74.00
2017-11-23T13:44:32.937Z,73.30
2017-11-23T13:47:05.572Z,73.20
2017-11-23T13:49:37.479Z,73.20
2017-11-23T13:52:09.353Z,73.30
2017-11-23T13:54:41.245Z,73.00
2017-11-23T13:57:13.133Z,73.40
2017-11-23T13:59:45.811Z,73.60
2017-11-23T14:02:17.683Z,73.40
2017-11-23T14:04:50.340Z,73.50
2017-11-23T14:07:22.213Z,73.40
2017-11-23T14:09:54.890Z,73.80
2017-11-23T14:12:26.767Z,74.50
2017-11-23T14:14:59.434Z,74.10
2017-11-23T14:17:32.109Z,74.20
2017-11-23T14:20:04.746Z,74.30
2017-11-23T14:22:36.869Z,74.00
2017-11-23T14:25:08.766Z,74.00
2017-11-23T14:27:40.624Z,73.90
2017-11-23T14:30:12.552Z,74.00
2017-11-23T14:32:45.317Z,74.10
2017-11-23T14:35:17.984Z,73.90
2017-11-23T14:37:50.185Z,73.80
2017-11-23T14:40:22.104Z,74.10
2017-11-23T14:42:53.976Z,74.30
2017-11-23T14:45:26.657Z,74.40
2017-11-23T14:47:59.293Z,75.20
2017-11-23T14:50:31.368Z,74.50
2017-11-23T14:53:03.245Z,74.40
2017-11-23T14:55:35.244Z,74.20
2017-11-23T14:58:07.874Z,74.40
2017-11-23T15:00:39.777Z,74.30
2017-11-23T15:03:12.425Z,74.40
2017-11-23T15:05:44.320Z,74.30
2017-11-23T15:08:16.186Z,74.50
2017-11-23T15:10:48.084Z,74.60
2017-11-23T15:13:19.962Z,75.00
2017-11-23T15:15:51.866Z,74.80
2017-11-23T15:18:23.752Z,75.20
2017-11-23T15:20:55.674Z,75.30
2017-11-23T15:23:28.316Z,75.50
2017-11-23T15:26:00.239Z,75.40
2017-11-23T15:28:32.129Z,75.50
2017-11-23T15:31:04.041Z,75.70
2017-11-23T15:33:36.793Z,76.10
2017-11-23T15:36:08.689Z,76.10
2017-11-23T15:38:40.562Z,76.50
2017-11-23T15:41:12.476Z,76.70
2017-11-23T15:43:44.345Z,77.20
2017-11-23T15:46:17.020Z,79.10
2017-11-23T15:48:48.891Z,79.10
2017-11-23T15:51:21.574Z,79.80
2017-11-23T15:53:54.216Z,79.90
2017-11-23T15:56:26.106Z,79.70
2017-11-23T15:58:58.745Z,79.80
2017-11-23T16:01:31.416Z,79.40
2017-11-23T16:04:03.308Z,79.40
2017-11-23T16:06:35.202Z,78.90
2017-11-23T16:09:07.072Z,79.50
2017-11-23T16:11:38.994Z,78.50
2017-11-23T16:14:10.866Z,78.70
2017-11-23T16:16:43.542Z,78.10
2017-11-23T16:19:16.200Z,78.10
2017-11-23T16:21:48.103Z,78.10
2017-11-23T16:24:19.981Z,77.50
2017-11-23T16:26:51.894Z,77.50
2017-11-23T16:29:23.778Z,77.20
2017-11-23T16:31:56.441Z,79.90
2017-11-23T16:34:29.087Z,82.50
2017-11-23T16:37:00.991Z,82.40
2017-11-23T16:39:33.638Z,84.70
2017-11-23T16:42:05.537Z,84.70
2017-11-23T16:44:37.417Z,85.20
2017-11-23T16:47:09.328Z,85.50
2017-11-23T16:49:41.201Z,85.80
2017-11-23T16:52:13.869Z,86.30
2017-11-23T16:54:45.745Z,86.30
2017-11-23T16:57:18.416Z,86.60
2017-11-23T16:59:51.053Z,86.70
2017-11-23T17:02:22.945Z,86.60
2017-11-23T17:04:54.833Z,86.50
2017-11-23T17:07:26.741Z,87.40
2017-11-23T17:09:58.617Z,86.80
2017-11-23T17:12:30.509Z,86.80
2017-11-23T17:15:02.384Z,86.60
2017-11-23T17:17:34.265Z,86.80
2017-11-23T17:20:06.138Z,86.50
2017-11-23T17:22:38.044Z,86.40
2017-11-23T17:25:10.678Z,85.90
2017-11-23T17:27:42.585Z,85.80
2017-11-23T17:30:15.249Z,86.20
2017-11-23T17:32:47.204Z,86.20
2017-11-23T17:35:19.087Z,86.20
2017-11-23T17:37:51.761Z,86.10
2017-11-23T17:40:24.409Z,85.80
2017-11-23T17:42:56.310Z,85.70
2017-11-23T17:45:28.188Z,85.40
2017-11-23T17:48:00.095Z,85.50
2017-11-23T17:50:31.978Z,85.00
2017-11-23T17:53:04.640Z,87.60
2017-11-23T17:55:38.000Z,87.50
2017-11-23T17:58:09.905Z,88.80
2017-11-23T18:00:42.553Z,88.80
2017-11-23T18:03:14.459Z,88.80
2017-11-23T18:05:47.101Z,90.20
2017-11-23T18:08:19.004Z,90.20
2017-11-23T18:10:50.898Z,90.30
2017-11-23T18:13:22.780Z,90.50
2017-11-23T18:15:54.648Z,90.80
2017-11-23T18:18:26.575Z,90.70
2017-11-23T18:20:59.592Z,91.10
2017-11-23T18:23:31.544Z,91.30
2017-11-23T18:26:04.263Z,91.10
2017-11-23T18:28:36.937Z,90.90
2017-11-23T18:31:09.587Z,90.70
2017-11-23T18:33:41.509Z,90.70
2017-11-23T18:36:13.382Z,90.70
2017-11-23T18:38:45.525Z,90.60
2017-11-23T18:41:17.423Z,90.50
2017-11-23T18:43:49.329Z,90.80
2017-11-23T18:46:21.979Z,90.60
2017-11-23T18:48:53.893Z,90.60
2017-11-23T18:51:25.785Z,90.70
2017-11-23T18:53:57.712Z,90.50
2017-11-23T18:56:29.597Z,90.50
2017-11-23T18:59:01.503Z,90.70
2017-11-23T19:01:34.158Z,90.80
2017-11-23T19:04:06.627Z,90.80
2017-11-23T19:06:38.495Z,90.90
2017-11-23T19:09:10.401Z,90.80
2017-11-23T19:11:42.399Z,91.10
2017-11-23T19:14:14.347Z,90.80
2017-11-23T19:16:46.902Z,90.80
2017-11-23T19:19:18.833Z,91.20
2017-11-23T19:21:51.498Z,91.60
2017-11-23T19:24:23.392Z,91.50
2017-11-23T19:26:55.276Z,91.60
2017-11-23T19:29:27.186Z,91.60
2017-11-23T19:31:59.063Z,91.60
2017-11-23T19:34:31.727Z,92.00
2017-11-23T19:37:03.655Z,92.00
2017-11-23T19:39:35.636Z,91.90
2017-11-23T19:42:07.525Z,91.90
2017-11-23T19:44:40.231Z,92.00
2017-11-23T19:47:12.150Z,91.90
2017-11-23T19:49:45.575Z,92.10
2017-11-23T19:52:17.454Z,92.10
2017-11-23T19:54:49.352Z,92.00
2017-11-23T19:57:21.241Z,92.20
2017-11-23T19:59:53.913Z,92.00
2017-11-23T20:02:26.553Z,92.00
2017-11-23T20:04:58.461Z,92.00
2017-11-23T20:07:31.728Z,92.10
2017-11-23T20:10:03.621Z,92.10
2017-11-23T20:12:35.496Z,91.90
2017-11-23T20:15:07.409Z,92.00
2017-11-23T20:17:40.118Z,92.20
2017-11-23T20:20:12.795Z,92.40
2017-11-23T20:22:45.436Z,92.50
2017-11-23T20:25:17.340Z,92.50
2017-11-23T20:27:49.213Z,92.50
2017-11-23T20:30:21.125Z,92.70
2017-11-23T20:32:52.999Z,92.40
2017-11-23T20:35:24.905Z,92.30
2017-11-23T20:37:56.772Z,92.40
2017-11-23T20:40:28.693Z,92.50
2017-11-23T20:43:01.340Z,92.50
2017-11-23T20:45:33.240Z,92.50
2017-11-23T20:48:05.111Z,92.60
2017-11-23T20:50:37.029Z,92.40
2017-11-23T20:53:08.900Z,92.50
2017-11-23T20:55:41.580Z,92.30
2017-11-23T20:58:14.217Z,92.00
2017-11-23T21:00:46.118Z,92.30
2017-11-23T21:03:18.786Z,91.80
2017-11-23T21:05:50.693Z,91.80
2017-11-23T21:08:22.573Z,91.90
2017-11-23T21:10:54.457Z,92.10
2017-11-23T21:13:26.344Z,92.10
2017-11-23T21:15:59.000Z,91.80
2017-11-23T21:18:30.886Z,91.80
2017-11-23T21:21:03.529Z,91.70
2017-11-23T21:23:35.429Z,91.70
2017-11-23T21:26:08.117Z,91.80
2017-11-23T21:28:39.996Z,91.80
2017-11-23T21:31:11.884Z,91.60
2017-11-23T21:33:43.763Z,91.40
2017-11-23T21:36:15.677Z,91.50
2017-11-23T21:38:47.624Z,91.60
2017-11-23T21:41:19.521Z,91.40
2017-11-23T21:43:51.400Z,91.40
2017-11-23T21:46:23.309Z,91.30
2017-11-23T21:48:55.237Z,91.40
2017-11-23T21:51:27.901Z,91.50
2017-11-23T21:53:59.769Z,91.50
2017-11-23T21:56:31.670Z,91.30
2017-11-23T21:59:03.542Z,91.40
2017-11-23T22:01:35.453Z,91.10
2017-11-23T22:04:08.097Z,91.20
2017-11-23T22:06:39.989Z,91.00
2017-11-23T22:09:11.864Z,91.00
2017-11-23T22:11:44.550Z,90.70
2017-11-23T22:14:17.199Z,90.60
2017-11-23T22:16:49.138Z,90.60
2017-11-23T22:19:21.009Z,90.50
2017-11-23T22:21:52.922Z,90.30
2017-11-23T22:24:24.810Z,90.60
2017-11-23T22:26:56.729Z,90.50
2017-11-23T22:29:29.375Z,90.50
2017-11-23T22:32:01.272Z,90.50
2017-11-23T22:34:34.262Z,90.40
2017-11-23T22:37:06.179Z,90.40
2017-11-23T22:39:38.050Z,90.00
2017-11-23T22:42:09.959Z,89.80
2017-11-23T22:44:41.824Z,90.50
2017-11-23T22:47:13.730Z,90.10
2017-11-23T22:49:45.605Z,90.00
2017-11-23T22:52:18.504Z,89.30
2017-11-23T22:54:50.377Z,89.20
2017-11-23T22:57:22.265Z,90.00
2017-11-23T22:59:54.150Z,89.60
2017-11-23T23:02:26.048Z,89.60
2017-11-23T23:04:57.926Z,89.90
2017-11-23T23:07:29.829Z,90.00
2017-11-23T23:10:01.701Z,89.70
2017-11-23T23:12:33.627Z,89.60
2017-11-23T23:15:05.497Z,89.20
2017-11-23T23:17:37.386Z,89.40
2017-11-23T23:20:09.576Z,89.30
2017-11-23T23:22:41.477Z,89.20
2017-11-23T23:25:13.365Z,89.20
2017-11-23T23:27:45.257Z,88.80
2017-11-23T23:30:17.886Z,88.60
2017-11-23T23:32:49.794Z,88.60
2017-11-23T23:35:21.677Z,89.10
2017-11-23T23:37:53.573Z,89.10
2017-11-23T23:40:25.450Z,88.90
2017-11-23T23:42:57.353Z,89.10
2017-11-23T23:45:29.225Z,89.00
2017-11-23T23:48:01.129Z,89.30
2017-11-23T23:50:32.996Z,88.70
2017-11-23T23:53:05.745Z,89.00
2017-11-23T23:55:37.704Z,89.00
2017-11-23T23:58:09.601Z,88.60
